createdAt,value
2023-11-30T00:00:00.264Z,39.27
2023-11-30T00:02:00.170Z,46.97
2023-11-30T00:04:00.331Z,46.97
2023-11-30T00:06:00.289Z,46.4
2023-11-30T00:08:00.222Z,46.4
2023-11-30T00:10:00.267Z,46.4
2023-11-30T00:12:00.348Z,47.22
2023-11-30T00:14:00.118Z,47.22
2023-11-30T00:16:00.148Z,45.53
2023-11-30T00:18:00.205Z,45.53
2023-11-30T00:20:00.234Z,45.53
2023-11-30T00:22:00.172Z,45.73
2023-11-30T00:24:00.111Z,45.73
2023-11-30T00:26:00.139Z,55.97
2023-11-30T00:28:00.117Z,55.97
2023-11-30T00:30:00.225Z,55.97
2023-11-30T00:32:00.208Z,39.97
2023-11-30T00:34:00.116Z,39.97
2023-11-30T00:36:00.236Z,46.47
2023-11-30T00:38:00.088Z,46.47
2023-11-30T00:40:00.232Z,46.47
2023-11-30T00:42:00.373Z,53.67
2023-11-30T00:44:00.133Z,53.67
2023-11-30T00:46:07.009Z,52.43
2023-11-30T00:48:00.245Z,52.43
2023-11-30T00:50:00.278Z,52.43
2023-11-30T00:52:00.261Z,40.28
2023-11-30T00:54:00.115Z,40.28
2023-11-30T00:56:00.187Z,36.92
2023-11-30T00:58:00.124Z,36.92
2023-11-30T01:00:00.438Z,36.92
2023-11-30T01:02:00.255Z,43.23
2023-11-30T01:04:00.397Z,43.23
2023-11-30T01:06:00.168Z,43.97
2023-11-30T01:08:00.119Z,43.97
2023-11-30T01:10:00.241Z,43.97
2023-11-30T01:12:00.259Z,38.72
2023-11-30T01:14:00.232Z,38.72
2023-11-30T01:16:00.175Z,36.92
2023-11-30T01:18:00.369Z,36.92
2023-11-30T01:20:00.305Z,36.92
2023-11-30T01:22:00.094Z,40.27
2023-11-30T01:24:00.363Z,40.27
2023-11-30T01:26:00.080Z,40.6
2023-11-30T01:28:00.166Z,40.6
2023-11-30T01:30:00.285Z,40.6
2023-11-30T01:32:00.098Z,38.07
2023-11-30T01:34:00.121Z,38.07
2023-11-30T01:36:00.342Z,44.58
2023-11-30T01:38:00.103Z,44.58
2023-11-30T01:40:00.241Z,44.58
2023-11-30T01:42:00.979Z,34.9
2023-11-30T01:44:00.209Z,34.9
2023-11-30T01:46:03.490Z,37.97
2023-11-30T01:48:00.147Z,37.97
2023-11-30T01:50:00.268Z,37.97
2023-11-30T01:52:00.225Z,33.7
2023-11-30T01:54:00.107Z,33.7
2023-11-30T01:56:00.285Z,35.25
2023-11-30T01:58:00.213Z,35.25
2023-11-30T02:00:00.327Z,35.25
2023-11-30T02:02:00.186Z,33.53
2023-11-30T02:04:00.362Z,33.53
2023-11-30T02:06:00.145Z,33.38
2023-11-30T02:08:00.174Z,33.38
2023-11-30T02:10:00.324Z,33.38
2023-11-30T02:12:00.091Z,34.67
2023-11-30T02:14:00.186Z,34.67
2023-11-30T02:16:00.242Z,38.2
2023-11-30T02:18:00.276Z,38.2
2023-11-30T02:20:00.276Z,38.2
2023-11-30T02:22:00.099Z,38.63
2023-11-30T02:24:00.165Z,38.63
2023-11-30T02:26:00.226Z,40.23
2023-11-30T02:28:00.094Z,40.23
2023-11-30T02:30:00.409Z,40.23
2023-11-30T02:32:00.229Z,47.1
2023-11-30T02:34:00.165Z,47.1
2023-11-30T02:36:00.352Z,43.25
2023-11-30T02:38:00.176Z,43.25
2023-11-30T02:40:00.299Z,43.25
2023-11-30T02:42:00.187Z,52.67
2023-11-30T02:44:00.183Z,52.67
2023-11-30T02:46:00.158Z,51.53
2023-11-30T02:48:00.291Z,51.53
2023-11-30T02:50:00.267Z,51.53
2023-11-30T02:52:00.234Z,47.53
2023-11-30T02:54:00.108Z,47.53
2023-11-30T02:56:00.106Z,48.47
2023-11-30T02:58:00.098Z,48.47
2023-11-30T03:00:00.231Z,48.47
2023-11-30T03:02:00.279Z,47.37
2023-11-30T03:04:00.166Z,47.37
2023-11-30T03:06:00.160Z,49.72
2023-11-30T03:08:00.119Z,49.72
2023-11-30T03:10:00.258Z,49.72
2023-11-30T03:12:00.129Z,47.85
2023-11-30T03:14:00.098Z,47.85
2023-11-30T03:16:00.293Z,49.42
2023-11-30T03:18:00.359Z,49.42
2023-11-30T03:20:00.331Z,49.42
2023-11-30T03:22:00.115Z,42.92
2023-11-30T03:24:00.134Z,42.92
2023-11-30T03:26:00.089Z,37.78
2023-11-30T03:28:00.103Z,37.78
2023-11-30T03:30:00.301Z,37.78
2023-11-30T03:32:00.150Z,40.03
2023-11-30T03:34:00.096Z,40.03
2023-11-30T03:36:00.199Z,38.73
2023-11-30T03:38:00.113Z,38.73
2023-11-30T03:40:00.303Z,38.73
2023-11-30T03:42:00.283Z,42.33
2023-11-30T03:44:00.107Z,42.33
2023-11-30T03:46:00.128Z,37.3
2023-11-30T03:48:00.284Z,37.3
2023-11-30T03:50:00.229Z,37.3
2023-11-30T03:52:00.244Z,36.93
2023-11-30T03:54:00.241Z,36.93
2023-11-30T03:56:00.102Z,35.6
2023-11-30T03:58:00.165Z,35.6
2023-11-30T04:00:00.283Z,35.6
2023-11-30T04:02:00.307Z,43.4
2023-11-30T04:04:00.268Z,43.4
2023-11-30T04:06:00.143Z,44.17
2023-11-30T04:08:00.192Z,44.17
2023-11-30T04:10:00.249Z,44.17
2023-11-30T04:12:00.269Z,43.85
2023-11-30T04:14:00.077Z,43.85
2023-11-30T04:16:00.272Z,41.7
2023-11-30T04:18:00.193Z,41.7
2023-11-30T04:20:00.278Z,41.7
2023-11-30T04:22:00.098Z,47.6
2023-11-30T04:24:00.197Z,47.6
2023-11-30T04:26:00.085Z,55.05
2023-11-30T04:28:00.204Z,55.05
2023-11-30T04:30:00.225Z,55.05
2023-11-30T04:32:00.101Z,52.78
2023-11-30T04:34:00.152Z,52.78
2023-11-30T04:36:00.171Z,50.8
2023-11-30T04:38:00.236Z,50.8
2023-11-30T04:40:00.324Z,50.8
2023-11-30T04:42:00.151Z,41.2
2023-11-30T04:44:00.107Z,41.2
2023-11-30T04:46:00.113Z,40.97
2023-11-30T04:48:00.257Z,40.97
2023-11-30T04:50:00.281Z,40.97
2023-11-30T04:52:00.130Z,45.45
2023-11-30T04:54:00.258Z,45.45
2023-11-30T04:56:00.282Z,40.73
2023-11-30T04:58:00.215Z,40.73
2023-11-30T05:00:00.285Z,40.73
2023-11-30T05:02:00.928Z,40.87
2023-11-30T05:04:00.531Z,40.87
2023-11-30T05:06:00.369Z,39.08
2023-11-30T05:08:00.110Z,39.08
2023-11-30T05:10:00.316Z,39.08
2023-11-30T05:12:00.241Z,34.9
2023-11-30T05:14:00.164Z,34.9
2023-11-30T05:16:00.166Z,46.97
2023-11-30T05:18:00.330Z,46.97
2023-11-30T05:20:00.311Z,46.97
2023-11-30T05:22:00.266Z,39.6
2023-11-30T05:24:00.292Z,39.6
2023-11-30T05:26:00.081Z,30.93
2023-11-30T05:28:00.361Z,30.93
2023-11-30T05:30:00.450Z,30.93
2023-11-30T05:32:00.090Z,34.37
2023-11-30T05:34:00.112Z,34.37
2023-11-30T05:36:00.470Z,36.92
2023-11-30T05:38:00.197Z,36.92
2023-11-30T05:40:00.334Z,36.92
2023-11-30T05:42:00.160Z,37.97
2023-11-30T05:44:00.171Z,37.97
2023-11-30T05:46:00.099Z,39.1
2023-11-30T05:48:00.220Z,39.1
2023-11-30T05:50:00.221Z,39.1
2023-11-30T05:52:00.217Z,33.83
2023-11-30T05:54:00.220Z,33.83
2023-11-30T05:56:00.226Z,32.08
2023-11-30T05:58:00.225Z,32.08
2023-11-30T06:00:00.266Z,32.08
2023-11-30T06:02:00.161Z,30.45
2023-11-30T06:04:00.273Z,30.45
2023-11-30T06:06:00.127Z,28.2
2023-11-30T06:08:00.220Z,28.2
2023-11-30T06:10:00.278Z,28.2
2023-11-30T06:12:00.118Z,27
2023-11-30T06:14:01.805Z,27
2023-11-30T06:16:00.124Z,38.7
2023-11-30T06:18:00.375Z,38.7
2023-11-30T06:20:01.376Z,38.7
2023-11-30T06:22:00.099Z,36.13
2023-11-30T06:24:00.312Z,36.13
2023-11-30T06:26:00.088Z,38.63
2023-11-30T06:28:00.219Z,38.63
2023-11-30T06:30:00.281Z,38.63
2023-11-30T06:32:00.086Z,42.55
2023-11-30T06:34:00.260Z,42.55
2023-11-30T06:36:00.198Z,40.42
2023-11-30T06:38:00.095Z,40.42
2023-11-30T06:40:00.306Z,40.42
2023-11-30T06:42:00.107Z,41.2
2023-11-30T06:44:00.101Z,41.2
2023-11-30T06:46:00.099Z,37.88
2023-11-30T06:48:00.274Z,37.88
2023-11-30T06:50:00.252Z,37.88
2023-11-30T06:52:01.601Z,33.63
2023-11-30T06:54:00.349Z,33.63
2023-11-30T06:56:00.106Z,33.75
2023-11-30T06:58:00.117Z,33.75
2023-11-30T07:00:00.488Z,33.75
2023-11-30T07:02:00.112Z,34.1
2023-11-30T07:04:00.425Z,34.1
2023-11-30T07:06:00.253Z,34.47
2023-11-30T07:08:00.123Z,34.47
2023-11-30T07:10:00.215Z,34.47
2023-11-30T07:12:00.123Z,33.5
2023-11-30T07:14:00.171Z,33.5
2023-11-30T07:16:00.223Z,39
2023-11-30T07:18:00.264Z,39
2023-11-30T07:20:00.295Z,39
2023-11-30T07:22:00.195Z,38.65
2023-11-30T07:24:00.401Z,38.65
2023-11-30T07:26:00.182Z,35.83
2023-11-30T07:28:00.090Z,35.83
2023-11-30T07:30:00.316Z,35.83
2023-11-30T07:32:00.127Z,37.67
2023-11-30T07:34:00.201Z,37.67
2023-11-30T07:36:00.194Z,38.5
2023-11-30T07:38:00.088Z,38.5
2023-11-30T07:40:00.302Z,38.5
2023-11-30T07:42:00.124Z,41.23
2023-11-30T07:44:00.123Z,41.23
2023-11-30T07:46:00.299Z,39.33
2023-11-30T07:48:00.483Z,39.33
2023-11-30T07:50:00.248Z,39.33
2023-11-30T07:52:00.176Z,34.67
2023-11-30T07:54:00.155Z,34.67
2023-11-30T07:56:00.228Z,38.2
2023-11-30T07:58:00.134Z,38.2
2023-11-30T08:00:00.500Z,38.2
2023-11-30T08:02:00.111Z,39.63
2023-11-30T08:04:00.318Z,39.63
2023-11-30T08:06:00.236Z,33.67
2023-11-30T08:08:00.154Z,33.67
2023-11-30T08:10:00.302Z,33.67
2023-11-30T08:12:00.276Z,44.75
2023-11-30T08:14:00.224Z,44.75
2023-11-30T08:16:00.162Z,40.3
2023-11-30T08:18:00.160Z,40.3
2023-11-30T08:20:00.292Z,40.3
2023-11-30T08:22:00.160Z,39.03
2023-11-30T08:24:00.212Z,39.03
2023-11-30T08:26:00.121Z,38.55
2023-11-30T08:28:00.268Z,38.55
2023-11-30T08:30:00.290Z,38.55
2023-11-30T08:32:00.193Z,38.37
2023-11-30T08:34:00.161Z,38.37
2023-11-30T08:36:00.111Z,34.4
2023-11-30T08:38:00.219Z,34.4
2023-11-30T08:40:00.220Z,34.4
2023-11-30T08:42:00.097Z,30.93
2023-11-30T08:44:00.119Z,30.93
2023-11-30T08:46:00.215Z,36.9
2023-11-30T08:48:00.153Z,36.9
2023-11-30T08:50:00.211Z,36.9
2023-11-30T08:52:00.183Z,32.88
2023-11-30T08:54:00.117Z,32.88
2023-11-30T08:56:00.111Z,31.67
2023-11-30T08:58:00.176Z,31.67
2023-11-30T09:00:00.506Z,31.67
2023-11-30T09:02:00.346Z,30
2023-11-30T09:04:00.188Z,30
2023-11-30T09:06:00.146Z,36.8
2023-11-30T09:08:00.139Z,36.8
2023-11-30T09:10:00.323Z,36.8
2023-11-30T09:12:00.105Z,34.7
2023-11-30T09:14:00.214Z,34.7
2023-11-30T09:16:00.154Z,35.2
2023-11-30T09:18:00.185Z,35.2
2023-11-30T09:20:00.235Z,35.2
2023-11-30T09:22:00.089Z,30.38
2023-11-30T09:24:00.274Z,30.38
2023-11-30T09:26:00.123Z,38.5
2023-11-30T09:28:00.121Z,38.5
2023-11-30T09:30:00.301Z,38.5
2023-11-30T09:32:00.893Z,34.92
2023-11-30T09:34:00.096Z,34.92
2023-11-30T09:36:00.215Z,34.92
2023-11-30T09:38:01.074Z,34.92
2023-11-30T09:40:00.329Z,34.92
2023-11-30T09:42:00.226Z,34.63
2023-11-30T09:44:00.392Z,34.63
2023-11-30T09:46:00.095Z,32.55
2023-11-30T09:48:00.259Z,32.55
2023-11-30T09:50:00.269Z,32.55
2023-11-30T09:52:00.233Z,34.37
2023-11-30T09:54:00.094Z,34.37
2023-11-30T09:56:00.113Z,32.67
2023-11-30T09:58:00.125Z,32.67
2023-11-30T10:00:00.407Z,32.67
2023-11-30T10:02:03.501Z,27.38
2023-11-30T10:04:00.434Z,27.38
2023-11-30T10:06:00.195Z,31.77
2023-11-30T10:08:00.306Z,31.77
2023-11-30T10:10:00.270Z,31.77
2023-11-30T10:12:00.222Z,26.07
2023-11-30T10:14:00.926Z,26.07
2023-11-30T10:16:00.368Z,26.2
2023-11-30T10:18:00.285Z,26.2
2023-11-30T10:20:00.244Z,26.2
2023-11-30T10:22:00.101Z,32.03
2023-11-30T10:24:00.170Z,32.03
2023-11-30T10:26:00.114Z,25.47
2023-11-30T10:28:00.212Z,25.47
2023-11-30T10:30:00.283Z,25.47
2023-11-30T10:32:00.176Z,25.5
2023-11-30T10:34:00.233Z,25.5
2023-11-30T10:36:00.213Z,25.1
2023-11-30T10:38:00.115Z,25.1
2023-11-30T10:40:00.310Z,25.1
2023-11-30T10:42:00.106Z,24.33
2023-11-30T10:44:00.722Z,24.33
2023-11-30T10:46:00.270Z,23.17
2023-11-30T10:48:00.203Z,23.17
2023-11-30T10:50:00.309Z,23.17
2023-11-30T10:52:03.086Z,26.3
2023-11-30T10:54:00.308Z,26.3
2023-11-30T10:56:00.095Z,22.38
2023-11-30T10:58:00.188Z,22.38
2023-11-30T11:00:00.510Z,22.38
2023-11-30T11:02:00.249Z,22.83
2023-11-30T11:04:00.185Z,22.83
2023-11-30T11:06:00.086Z,21.13
2023-11-30T11:08:00.218Z,21.13
2023-11-30T11:10:02.392Z,21.13
2023-11-30T11:12:00.245Z,17.9
2023-11-30T11:14:00.139Z,17.9
2023-11-30T11:16:00.624Z,18.33
2023-11-30T11:18:00.155Z,18.33
2023-11-30T11:20:00.269Z,18.33
2023-11-30T11:22:00.124Z,18.1
2023-11-30T11:24:00.196Z,18.1
2023-11-30T11:26:00.089Z,18.1
2023-11-30T11:28:00.139Z,18.1
2023-11-30T11:30:00.417Z,18.1
2023-11-30T11:32:00.246Z,15.32
2023-11-30T11:34:00.138Z,15.32
2023-11-30T11:36:00.110Z,15.32
2023-11-30T11:38:00.343Z,15.32
2023-11-30T11:40:00.309Z,15.32
2023-11-30T11:42:00.085Z,12.3
2023-11-30T11:44:00.119Z,12.3
2023-11-30T11:46:00.245Z,14.07
2023-11-30T11:48:00.393Z,14.07
2023-11-30T11:50:00.237Z,14.07
2023-11-30T11:52:00.277Z,14.07
2023-11-30T11:54:00.099Z,14.07
2023-11-30T11:56:00.114Z,11.45
2023-11-30T11:58:00.194Z,11.45
2023-11-30T12:00:00.281Z,11.45
2023-11-30T12:02:00.215Z,11.43
2023-11-30T12:04:00.347Z,11.43
2023-11-30T12:06:00.082Z,9.13
2023-11-30T12:08:00.126Z,9.13
2023-11-30T12:10:00.360Z,9.13
2023-11-30T12:12:00.110Z,13.05
2023-11-30T12:14:00.126Z,13.05
2023-11-30T12:16:00.251Z,13.25
2023-11-30T12:18:00.157Z,13.25
2023-11-30T12:20:00.230Z,13.25
2023-11-30T12:22:00.238Z,12.32
2023-11-30T12:24:00.129Z,12.32
2023-11-30T12:26:00.258Z,12.32
2023-11-30T12:28:00.126Z,12.32
2023-11-30T12:30:00.299Z,12.32
2023-11-30T12:32:00.145Z,12.32
2023-11-30T12:34:00.135Z,12.32
2023-11-30T12:36:00.225Z,12.32
2023-11-30T12:38:00.234Z,12.32
2023-11-30T12:40:00.691Z,12.32
2023-11-30T12:42:01.080Z,12.32
2023-11-30T12:44:00.627Z,12.32
2023-11-30T12:46:00.308Z,10.35
2023-11-30T12:48:00.349Z,10.35
2023-11-30T12:50:00.407Z,10.35
2023-11-30T12:52:14.732Z,9.4
2023-11-30T12:54:00.153Z,9.4
2023-11-30T12:56:00.140Z,9.4
2023-11-30T12:58:00.185Z,9.4
2023-11-30T13:00:00.255Z,9.4
2023-11-30T13:02:00.250Z,9.4
2023-11-30T13:04:00.273Z,9.4
2023-11-30T13:06:00.187Z,10.6
2023-11-30T13:08:00.140Z,10.6
2023-11-30T13:10:00.288Z,10.6
2023-11-30T13:12:00.292Z,13.53
2023-11-30T13:14:00.125Z,13.53
2023-11-30T13:16:00.108Z,12.7
2023-11-30T13:18:00.269Z,12.7
2023-11-30T13:20:00.167Z,12.7
2023-11-30T13:22:00.108Z,11.73
2023-11-30T13:24:00.201Z,11.73
2023-11-30T13:26:00.090Z,12.7
2023-11-30T13:28:00.109Z,12.7
2023-11-30T13:30:00.342Z,12.7
2023-11-30T13:32:00.321Z,12.23
2023-11-30T13:34:00.088Z,12.23
2023-11-30T13:36:00.110Z,9.82
2023-11-30T13:38:00.256Z,9.82
2023-11-30T13:40:00.290Z,9.82
2023-11-30T13:42:00.082Z,10.85
2023-11-30T13:44:00.098Z,10.85
2023-11-30T13:46:00.218Z,12.57
2023-11-30T13:48:00.191Z,12.57
2023-11-30T13:50:00.205Z,12.57
2023-11-30T13:52:00.102Z,13.55
2023-11-30T13:54:00.187Z,13.55
2023-11-30T13:56:00.108Z,13.1
2023-11-30T13:58:00.104Z,13.1
2023-11-30T14:00:00.252Z,13.1
2023-11-30T14:02:00.212Z,10.15
2023-11-30T14:04:00.142Z,10.15
2023-11-30T14:06:00.118Z,11.57
2023-11-30T14:08:01.527Z,11.57
2023-11-30T14:10:00.348Z,11.57
2023-11-30T14:12:00.130Z,11.77
2023-11-30T14:14:00.172Z,11.77
2023-11-30T14:16:00.307Z,16.27
2023-11-30T14:18:00.164Z,16.27
2023-11-30T14:20:00.289Z,16.27
2023-11-30T14:22:00.139Z,18
2023-11-30T14:24:00.170Z,18
2023-11-30T14:26:00.081Z,20.3
2023-11-30T14:28:04.968Z,20.3
2023-11-30T14:30:00.257Z,20.3
2023-11-30T14:32:00.098Z,23.03
2023-11-30T14:34:00.194Z,23.03
2023-11-30T14:36:00.293Z,26.58
2023-11-30T14:38:00.272Z,26.58
2023-11-30T14:40:00.336Z,26.58
2023-11-30T14:42:00.248Z,26.17
2023-11-30T14:44:00.136Z,26.17
2023-11-30T14:46:00.179Z,30.77
2023-11-30T14:48:00.206Z,30.77
2023-11-30T14:50:00.342Z,30.77
2023-11-30T14:52:00.281Z,35.67
2023-11-30T14:54:00.262Z,35.67
2023-11-30T14:56:00.169Z,34.2
2023-11-30T14:58:00.335Z,34.2
2023-11-30T15:00:00.277Z,34.2
2023-11-30T15:02:00.262Z,38.42
2023-11-30T15:04:00.186Z,38.42
2023-11-30T15:06:00.113Z,44.1
2023-11-30T15:08:00.143Z,44.1
2023-11-30T15:10:00.349Z,44.1
2023-11-30T15:12:00.148Z,39.33
2023-11-30T15:14:00.221Z,39.33
2023-11-30T15:16:00.264Z,40.03
2023-11-30T15:18:00.257Z,40.03
2023-11-30T15:20:00.280Z,40.03
2023-11-30T15:22:00.300Z,36.33
2023-11-30T15:24:00.116Z,36.33
2023-11-30T15:26:00.078Z,45.5
2023-11-30T15:28:00.186Z,45.5
2023-11-30T15:30:00.393Z,45.5
2023-11-30T15:32:00.146Z,44.37
2023-11-30T15:34:00.279Z,44.37
2023-11-30T15:36:00.187Z,48.72
2023-11-30T15:38:00.118Z,48.72
2023-11-30T15:40:00.337Z,48.72
2023-11-30T15:42:00.202Z,43.35
2023-11-30T15:44:00.135Z,43.35
2023-11-30T15:46:00.217Z,56.73
2023-11-30T15:48:00.226Z,56.73
2023-11-30T15:50:00.337Z,56.73
2023-11-30T15:52:00.199Z,50.03
2023-11-30T15:54:00.121Z,50.03
2023-11-30T15:56:00.205Z,49.08
2023-11-30T15:58:00.191Z,49.08
2023-11-30T16:00:00.336Z,49.08
2023-11-30T16:02:00.185Z,62.63
2023-11-30T16:04:00.507Z,62.63
2023-11-30T16:06:00.243Z,50.8
2023-11-30T16:08:00.102Z,50.8
2023-11-30T16:10:00.241Z,50.8
2023-11-30T16:12:00.111Z,52.13
2023-11-30T16:14:00.182Z,52.13
2023-11-30T16:16:00.161Z,54.67
2023-11-30T16:18:00.140Z,54.67
2023-11-30T16:20:00.253Z,54.67
2023-11-30T16:22:00.183Z,58.8
2023-11-30T16:24:00.120Z,58.8
2023-11-30T16:26:00.083Z,55.97
2023-11-30T16:28:00.181Z,55.97
2023-11-30T16:30:00.355Z,55.97
2023-11-30T16:32:00.157Z,56.63
2023-11-30T16:34:00.142Z,56.63
2023-11-30T16:36:00.092Z,55.07
2023-11-30T16:38:00.246Z,55.07
2023-11-30T16:40:00.400Z,55.07
2023-11-30T16:42:00.116Z,59.53
2023-11-30T16:44:00.303Z,59.53
2023-11-30T16:46:00.388Z,65.07
2023-11-30T16:48:00.426Z,65.07
2023-11-30T16:50:00.306Z,65.07
2023-11-30T16:52:00.342Z,67.07
2023-11-30T16:54:00.090Z,67.07
2023-11-30T16:56:00.152Z,62.3
2023-11-30T16:58:00.115Z,62.3
2023-11-30T17:00:00.306Z,62.3
2023-11-30T17:02:00.138Z,84.22
2023-11-30T17:04:00.283Z,84.22
2023-11-30T17:06:00.080Z,97.6
2023-11-30T17:08:00.283Z,97.6
2023-11-30T17:10:00.557Z,97.6
2023-11-30T17:12:00.142Z,93.88
2023-11-30T17:14:00.360Z,93.88
2023-11-30T17:16:00.172Z,94.6
2023-11-30T17:18:00.197Z,94.6
2023-11-30T17:20:00.346Z,94.6
2023-11-30T17:22:00.117Z,88.47
2023-11-30T17:24:00.104Z,88.47
2023-11-30T17:26:00.182Z,89.23
2023-11-30T17:28:00.238Z,89.23
2023-11-30T17:30:00.187Z,89.23
2023-11-30T17:32:00.229Z,117.88
2023-11-30T17:34:00.298Z,117.88
2023-11-30T17:36:00.097Z,107.43
2023-11-30T17:38:00.108Z,107.43
2023-11-30T17:40:00.344Z,107.43
2023-11-30T17:42:00.109Z,99.93
2023-11-30T17:44:00.093Z,99.93
2023-11-30T17:46:00.183Z,103.68
2023-11-30T17:48:00.131Z,103.68
2023-11-30T17:50:01.542Z,103.68
2023-11-30T17:52:00.098Z,78.5
2023-11-30T17:54:00.120Z,78.5
2023-11-30T17:56:00.151Z,83.83
2023-11-30T17:58:00.226Z,83.83
2023-11-30T18:00:00.440Z,83.83
2023-11-30T18:02:00.186Z,88.9
2023-11-30T18:04:00.149Z,88.9
2023-11-30T18:06:00.081Z,91.67
2023-11-30T18:08:00.170Z,91.67
2023-11-30T18:10:00.218Z,91.67
2023-11-30T18:12:00.098Z,83.95
2023-11-30T18:14:00.164Z,83.95
2023-11-30T18:16:03.014Z,73.07
2023-11-30T18:18:00.116Z,73.07
2023-11-30T18:20:00.283Z,73.07
2023-11-30T18:22:00.237Z,69.13
2023-11-30T18:24:00.207Z,69.13
2023-11-30T18:26:00.269Z,58.58
2023-11-30T18:28:00.135Z,58.58
2023-11-30T18:30:00.280Z,58.58
2023-11-30T18:32:00.292Z,54.33
2023-11-30T18:34:00.164Z,54.33
2023-11-30T18:36:00.165Z,65.5
2023-11-30T18:38:02.920Z,65.5
2023-11-30T18:40:00.410Z,65.5
2023-11-30T18:42:00.096Z,59.97
2023-11-30T18:44:00.153Z,59.97
2023-11-30T18:46:00.187Z,67.2
2023-11-30T18:48:00.156Z,67.2
2023-11-30T18:50:00.250Z,67.2
2023-11-30T18:52:00.266Z,62.05
2023-11-30T18:54:00.226Z,62.05
2023-11-30T18:56:00.106Z,60.38
2023-11-30T18:58:00.141Z,60.38
2023-11-30T19:00:00.263Z,60.38
2023-11-30T19:02:00.180Z,64.1
2023-11-30T19:04:00.305Z,64.1
2023-11-30T19:06:00.114Z,76.32
2023-11-30T19:08:00.236Z,76.32
2023-11-30T19:10:00.303Z,76.32
2023-11-30T19:12:00.120Z,65.3
2023-11-30T19:14:00.236Z,65.3
2023-11-30T19:16:00.230Z,65.43
2023-11-30T19:18:00.322Z,65.43
2023-11-30T19:20:00.278Z,65.43
2023-11-30T19:22:00.114Z,70.55
2023-11-30T19:24:00.103Z,70.55
2023-11-30T19:26:00.100Z,54.1
2023-11-30T19:28:00.267Z,54.1
2023-11-30T19:30:00.287Z,54.1
2023-11-30T19:32:00.123Z,52.83
2023-11-30T19:34:00.305Z,52.83
2023-11-30T19:36:00.271Z,56.83
2023-11-30T19:38:00.265Z,56.83
2023-11-30T19:40:01.592Z,56.83
2023-11-30T19:42:00.225Z,59.57
2023-11-30T19:44:00.238Z,59.57
2023-11-30T19:46:02.904Z,56.2
2023-11-30T19:48:00.382Z,56.2
2023-11-30T19:50:00.273Z,56.2
2023-11-30T19:52:00.140Z,52.95
2023-11-30T19:54:00.299Z,52.95
2023-11-30T19:56:00.245Z,54.5
2023-11-30T19:58:00.284Z,54.5
2023-11-30T20:00:00.265Z,54.5
2023-11-30T20:02:00.156Z,48.7
2023-11-30T20:04:00.349Z,48.7
2023-11-30T20:06:00.218Z,66.88
2023-11-30T20:08:00.156Z,66.88
2023-11-30T20:10:00.356Z,66.88
2023-11-30T20:12:00.140Z,60.3
2023-11-30T20:14:00.223Z,60.3
2023-11-30T20:16:00.238Z,53.77
2023-11-30T20:18:00.244Z,53.77
2023-11-30T20:20:00.350Z,53.77
2023-11-30T20:22:00.211Z,59.35
2023-11-30T20:24:00.234Z,59.35
2023-11-30T20:26:00.081Z,53.93
2023-11-30T20:28:00.341Z,53.93
2023-11-30T20:30:00.210Z,53.93
2023-11-30T20:32:00.187Z,53.93
2023-11-30T20:34:00.268Z,53.93
2023-11-30T20:36:00.096Z,56.1
2023-11-30T20:38:00.224Z,56.1
2023-11-30T20:40:00.338Z,56.1
2023-11-30T20:42:00.340Z,50.5
2023-11-30T20:44:00.202Z,50.5
2023-11-30T20:46:00.194Z,54.7
2023-11-30T20:48:00.446Z,54.7
2023-11-30T20:50:00.295Z,54.7
2023-11-30T20:52:00.204Z,55.67
2023-11-30T20:54:00.078Z,55.67
2023-11-30T20:56:00.112Z,48.73
2023-11-30T20:58:00.327Z,48.73
2023-11-30T21:00:00.277Z,48.73
2023-11-30T21:02:00.318Z,47.3
2023-11-30T21:04:00.341Z,47.3
2023-11-30T21:06:00.080Z,45.6
2023-11-30T21:08:00.107Z,45.6
2023-11-30T21:10:00.312Z,45.6
2023-11-30T21:12:00.137Z,47.97
2023-11-30T21:14:00.103Z,47.97
2023-11-30T21:16:00.168Z,53.1
2023-11-30T21:18:00.339Z,53.1
2023-11-30T21:20:00.253Z,53.1
2023-11-30T21:22:00.134Z,51.03
2023-11-30T21:24:00.154Z,51.03
2023-11-30T21:26:00.108Z,47.78
2023-11-30T21:28:00.327Z,47.78
2023-11-30T21:30:00.243Z,47.78
2023-11-30T21:32:00.246Z,51.83
2023-11-30T21:34:00.143Z,51.83
2023-11-30T21:36:00.135Z,42.15
2023-11-30T21:38:00.150Z,42.15
2023-11-30T21:40:00.346Z,42.15
2023-11-30T21:42:00.082Z,51.43
2023-11-30T21:44:00.126Z,51.43
2023-11-30T21:46:00.254Z,43.53
2023-11-30T21:48:00.273Z,43.53
2023-11-30T21:50:00.278Z,43.53
2023-11-30T21:52:00.158Z,46.37
2023-11-30T21:54:00.091Z,46.37
2023-11-30T21:56:00.166Z,52.37
2023-11-30T21:58:00.165Z,52.37
2023-11-30T22:00:00.298Z,52.37
2023-11-30T22:02:00.285Z,45.57
2023-11-30T22:04:00.385Z,45.57
2023-11-30T22:06:00.085Z,49.6
2023-11-30T22:08:00.259Z,49.6
2023-11-30T22:10:00.355Z,49.6
2023-11-30T22:12:00.091Z,42.23
2023-11-30T22:14:00.131Z,42.23
2023-11-30T22:16:06.588Z,48.97
2023-11-30T22:18:00.217Z,48.97
2023-11-30T22:20:00.291Z,48.97
2023-11-30T22:22:00.090Z,45
2023-11-30T22:24:00.242Z,45
2023-11-30T22:26:04.205Z,48.4
2023-11-30T22:28:00.131Z,48.4
2023-11-30T22:30:00.155Z,48.4
2023-11-30T22:32:00.242Z,43.7
2023-11-30T22:34:00.203Z,43.7
2023-11-30T22:36:00.238Z,50.35
2023-11-30T22:38:00.235Z,50.35
2023-11-30T22:40:00.282Z,50.35
2023-11-30T22:42:00.085Z,47.45
2023-11-30T22:44:00.281Z,47.45
2023-11-30T22:46:00.231Z,47.83
2023-11-30T22:48:00.250Z,47.83
2023-11-30T22:50:00.269Z,47.83
2023-11-30T22:52:00.272Z,48.1
2023-11-30T22:54:00.162Z,48.1
2023-11-30T22:56:00.189Z,54.5
2023-11-30T22:58:00.164Z,54.5
2023-11-30T23:00:00.328Z,54.5
2023-11-30T23:02:00.349Z,52.53
2023-11-30T23:04:00.300Z,52.53
2023-11-30T23:06:00.084Z,47.72
2023-11-30T23:08:00.105Z,47.72
2023-11-30T23:10:00.306Z,47.72
2023-11-30T23:12:00.112Z,56
2023-11-30T23:14:00.082Z,56
2023-11-30T23:16:00.145Z,49.92
2023-11-30T23:18:00.221Z,49.92
2023-11-30T23:20:00.169Z,49.92
2023-11-30T23:22:00.174Z,53.6
2023-11-30T23:24:00.212Z,53.6
2023-11-30T23:26:00.124Z,60.6
2023-11-30T23:28:00.135Z,60.6
2023-11-30T23:30:00.199Z,60.6
2023-11-30T23:32:00.103Z,58.1
2023-11-30T23:34:00.161Z,58.1
2023-11-30T23:36:00.276Z,61.65
2023-11-30T23:38:00.243Z,61.65
2023-11-30T23:40:00.310Z,61.65
2023-11-30T23:42:00.084Z,56.63
2023-11-30T23:44:00.091Z,56.63
2023-11-30T23:46:00.097Z,57.17
2023-11-30T23:48:00.105Z,57.17
2023-11-30T23:50:00.252Z,57.17
2023-11-30T23:52:00.134Z,58.5
2023-11-30T23:54:00.099Z,58.5
2023-11-30T23:56:00.092Z,58.75
2023-11-30T23:58:00.158Z,58.75
